Time,TemperatureF,DewpointF,PressureIn,WindDirection,WindDirectionDegrees,WindSpeedMPH,WindSpeedGustMPH,Humidity,HourlyPrecipIn,Conditions,Clouds,dailyrainin,SoftwareType,DateUTC
2013-09-01 00:10:00,68.7,63.0,29.76,WSW,248,6.0,14.0,82,0.01,,,0.00,weatherlink.com 1.10,2013-09-01 05:10:00,
2013-09-01 00:24:00,68.5,63.0,29.75,West,269,12.0,21.0,83,0.00,,,0.00,weatherlink.com 1.10,2013-09-01 05:24:00,
2013-09-01 00:40:00,67.9,64.0,29.75,WSW,252,10.0,14.0,86,0.00,,,0.00,weatherlink.com 1.10,2013-09-01 05:40:00,
2013-09-01 00:55:00,67.6,64.0,29.74,WSW,253,11.0,13.0,87,0.00,,,0.00,weatherlink.com 1.10,2013-09-01 05:55:00,
2013-09-01 01:10:00,67.3,64.0,29.74,West,263,8.0,16.0,88,0.00,,,0.00,weatherlink.com 1.10,2013-09-01 06:10:00,
2013-09-01 01:25:00,67.1,64.0,29.74,WSW,256,9.0,13.0,88,0.00,,,0.00,weatherlink.com 1.10,2013-09-01 06:25:00,
2013-09-01 01:40:00,67.1,64.0,29.74,WSW,246,9.0,10.0,88,0.00,,,0.00,weatherlink.com 1.10,2013-09-01 06:40:00,
2013-09-01 01:55:00,66.9,64.0,29.74,West,274,7.0,10.0,89,0.00,,,0.00,weatherlink.com 1.10,2013-09-01 06:55:00,
2013-09-01 02:10:00,67.1,64.0,29.73,West,259,6.0,10.0,88,0.00,,,0.00,weatherlink.com 1.10,2013-09-01 07:10:00,
2013-09-01 02:25:00,67.2,64.0,29.74,West,259,6.0,9.0,88,0.00,,,0.00,weatherlink.com 1.10,2013-09-01 07:25:00,
2013-09-01 02:40:00,66.9,63.0,29.74,West,260,3.0,8.0,88,0.00,,,0.00,weatherlink.com 1.10,2013-09-01 07:40:00,
2013-09-01 02:55:00,66.5,63.0,29.74,West,278,5.0,8.0,89,0.00,,,0.00,weatherlink.com 1.10,2013-09-01 07:55:00,
2013-09-01 03:11:00,66.2,63.0,29.75,WSW,253,2.0,7.0,88,0.00,,,0.00,weatherlink.com 1.10,2013-09-01 08:11:00,
2013-09-01 03:26:00,65.8,62.0,29.75,North,352,3.0,7.0,87,0.00,,,0.00,weatherlink.com 1.10,2013-09-01 08:26:00,
2013-09-01 03:41:00,65.2,61.0,29.75,West,260,2.0,6.0,86,0.00,,,0.00,weatherlink.com 1.10,2013-09-01 08:41:00,
2013-09-01 03:56:00,64.8,61.0,29.75,WNW,302,3.0,6.0,86,0.00,,,0.00,weatherlink.com 1.10,2013-09-01 08:56:00,
2013-09-01 04:11:00,64.1,60.0,29.75,West,273,4.0,5.0,87,0.00,,,0.00,weatherlink.com 1.10,2013-09-01 09:11:00,
2013-09-01 04:26:00,63.7,60.0,29.75,WNW,293,0.0,6.0,87,0.00,,,0.00,weatherlink.com 1.10,2013-09-01 09:26:00,
2013-09-01 04:41:00,63.2,59.0,29.76,West,263,3.0,9.0,87,0.00,,,0.00,weatherlink.com 1.10,2013-09-01 09:41:00,
2013-09-01 04:56:00,63.3,59.0,29.76,West,259,2.0,14.0,85,0.00,,,0.00,weatherlink.com 1.10,2013-09-01 09:56:00,
2013-09-01 05:11:00,63.2,59.0,29.76,WNW,284,4.0,10.0,85,0.00,,,0.00,weatherlink.com 1.10,2013-09-01 10:11:00,
2013-09-01 05:26:00,63.2,59.0,29.77,NW,321,5.0,10.0,86,0.00,,,0.00,weatherlink.com 1.10,2013-09-01 10:26:00,
2013-09-01 05:40:00,62.6,58.0,29.77,WSW,245,3.0,8.0,86,0.00,,,0.00,weatherlink.com 1.10,2013-09-01 10:40:00,
2013-09-01 05:56:00,62.4,58.0,29.77,NW,322,3.0,10.0,86,0.00,,,0.00,weatherlink.com 1.10,2013-09-01 10:56:00,
2013-09-01 06:12:00,61.9,58.0,29.77,West,281,6.0,14.0,87,0.00,,,0.00,weatherlink.com 1.10,2013-09-01 11:12:00,
2013-09-01 06:26:00,61.6,58.0,29.77,NW,321,8.0,15.0,88,0.00,,,0.00,weatherlink.com 1.10,2013-09-01 11:26:00,
2013-09-01 06:42:00,61.4,59.0,29.79,North,9,6.0,11.0,90,0.00,,,0.00,weatherlink.com 1.10,2013-09-01 11:42:00,
2013-09-01 06:56:00,61.4,59.0,29.79,NNE,33,1.0,11.0,90,0.00,,,0.00,weatherlink.com 1.10,2013-09-01 11:56:00,
2013-09-01 07:12:00,61.8,59.0,29.79,East,85,4.0,11.0,89,0.00,,,0.00,weatherlink.com 1.10,2013-09-01 12:12:00,
2013-09-01 07:27:00,62.9,59.0,29.79,NNW,344,3.0,13.0,87,0.00,,,0.00,weatherlink.com 1.10,2013-09-01 12:27:00,
2013-09-01 07:41:00,63.3,59.0,29.81,West,259,2.0,10.0,87,0.00,,,0.00,weatherlink.com 1.10,2013-09-01 12:41:00,
2013-09-01 07:57:00,63.8,60.0,29.81,NW,322,5.0,11.0,86,0.00,,,0.00,weatherlink.com 1.10,2013-09-01 12:57:00,
2013-09-01 08:11:00,64.5,60.0,29.81,WNW,284,3.0,8.0,85,0.00,,,0.00,weatherlink.com 1.10,2013-09-01 13:11:00,
2013-09-01 08:27:00,65.2,60.0,29.81,SE,134,2.0,11.0,83,0.00,,,0.00,weatherlink.com 1.10,2013-09-01 13:27:00,
2013-09-01 08:43:00,65.8,60.0,29.82,WNW,297,8.0,9.0,82,0.00,,,0.00,weatherlink.com 1.10,2013-09-01 13:43:00,
2013-09-01 08:57:00,66.1,61.0,29.82,West,281,5.0,11.0,82,0.00,,,0.00,weatherlink.com 1.10,2013-09-01 13:57:00,
2013-09-01 09:12:00,65.9,59.0,29.82,NNE,30,5.0,13.0,79,0.00,,,0.00,weatherlink.com 1.10,2013-09-01 14:12:00,
2013-09-01 09:28:00,66.7,60.0,29.82,SW,215,4.0,14.0,78,0.00,,,0.00,weatherlink.com 1.10,2013-09-01 14:28:00,
2013-09-01 09:42:00,67.2,59.0,29.83,SW,236,8.0,13.0,75,0.00,,,0.00,weatherlink.com 1.10,2013-09-01 14:42:00,
2013-09-01 09:58:00,67.1,59.0,29.83,WNW,301,7.0,17.0,76,0.00,,,0.00,weatherlink.com 1.10,2013-09-01 14:58:00,
2013-09-01 10:12:00,67.6,59.0,29.84,NNE,19,9.0,13.0,74,0.00,,,0.00,weatherlink.com 1.10,2013-09-01 15:12:00,
2013-09-01 10:28:00,68.5,60.0,29.84,NE,39,10.0,13.0,73,0.00,,,0.00,weatherlink.com 1.10,2013-09-01 15:28:00,
2013-09-01 10:42:00,68.2,59.0,29.84,WNW,302,6.0,15.0,72,0.00,,,0.00,weatherlink.com 1.10,2013-09-01 15:42:00,
2013-09-01 10:57:00,69.5,60.0,29.84,North,6,3.0,12.0,71,0.00,,,0.00,weatherlink.com 1.10,2013-09-01 15:57:00,
2013-09-01 11:12:00,69.0,58.0,29.85,NW,326,4.0,17.0,69,0.00,,,0.00,weatherlink.com 1.10,2013-09-01 16:12:00,
2013-09-01 11:28:00,70.6,59.0,29.85,NW,326,8.0,13.0,67,0.00,,,0.00,weatherlink.com 1.10,2013-09-01 16:28:00,
2013-09-01 11:44:00,70.3,59.0,29.85,WSW,251,5.0,11.0,67,0.00,,,0.00,weatherlink.com 1.10,2013-09-01 16:44:00,
2013-09-01 11:58:00,69.4,59.0,29.86,WNW,295,7.0,12.0,70,0.00,,,0.00,weatherlink.com 1.10,2013-09-01 16:58:00,
2013-09-01 12:13:00,69.1,58.0,29.86,WNW,285,2.0,17.0,68,0.00,,,0.00,weatherlink.com 1.10,2013-09-01 17:13:00,
2013-09-01 12:29:00,69.7,58.0,29.86,NW,321,6.0,9.0,67,0.00,,,0.00,weatherlink.com 1.10,2013-09-01 17:29:00,
2013-09-01 12:43:00,68.5,58.0,29.86,NNW,336,5.0,12.0,70,0.00,,,0.00,weatherlink.com 1.10,2013-09-01 17:43:00,
2013-09-01 12:59:00,68.1,58.0,29.87,NE,39,4.0,10.0,71,0.00,,,0.00,weatherlink.com 1.10,2013-09-01 17:59:00,
2013-09-01 13:14:00,68.9,58.0,29.87,WSW,240,1.0,12.0,69,0.00,,,0.00,weatherlink.com 1.10,2013-09-01 18:14:00,
2013-09-01 13:28:00,69.1,59.0,29.87,WSW,258,4.0,12.0,69,0.00,,,0.00,weatherlink.com 1.10,2013-09-01 18:28:00,
2013-09-01 13:44:00,70.2,59.0,29.88,West,268,3.0,14.0,68,0.00,,,0.00,weatherlink.com 1.10,2013-09-01 18:44:00,
2013-09-01 14:00:00,69.9,59.0,29.88,WSW,245,1.0,9.0,69,0.00,,,0.00,weatherlink.com 1.10,2013-09-01 19:00:00,
2013-09-01 14:14:00,69.8,59.0,29.88,WSW,256,2.0,8.0,69,0.00,,,0.00,weatherlink.com 1.10,2013-09-01 19:14:00,
2013-09-01 14:29:00,69.5,59.0,29.88,West,266,5.0,8.0,69,0.00,,,0.00,weatherlink.com 1.10,2013-09-01 19:29:00,
2013-09-01 14:44:00,69.3,59.0,29.88,WSW,242,9.0,9.0,69,0.00,,,0.00,weatherlink.com 1.10,2013-09-01 19:44:00,
2013-09-01 14:59:00,69.0,58.0,29.88,East,91,6.0,12.0,69,0.00,,,0.00,weatherlink.com 1.10,2013-09-01 19:59:00,
2013-09-01 15:15:00,68.8,58.0,29.89,WSW,256,4.0,14.0,69,0.00,,,0.00,weatherlink.com 1.10,2013-09-01 20:15:00,
2013-09-01 15:29:00,69.2,58.0,29.88,NW,314,6.0,12.0,68,0.00,,,0.00,weatherlink.com 1.10,2013-09-01 20:29:00,
2013-09-01 15:44:00,67.9,59.0,29.89,NW,314,5.0,12.0,72,0.00,,,0.00,weatherlink.com 1.10,2013-09-01 20:44:00,
2013-09-01 16:00:00,67.9,58.0,29.89,NE,49,3.0,11.0,71,0.00,,,0.00,weatherlink.com 1.10,2013-09-01 21:00:00,
2013-09-01 16:14:00,68.1,59.0,29.89,SW,233,0.0,15.0,72,0.00,,,0.00,weatherlink.com 1.10,2013-09-01 21:14:00,
2013-09-01 16:29:00,67.9,59.0,29.89,NNW,335,4.0,9.0,72,0.00,,,0.00,weatherlink.com 1.10,2013-09-01 21:29:00,
2013-09-01 16:44:00,67.4,58.0,29.89,WNW,288,2.0,9.0,72,0.00,,,0.00,weatherlink.com 1.10,2013-09-01 21:44:00,
2013-09-01 16:59:00,67.5,59.0,29.89,North,8,9.0,9.0,73,0.00,,,0.00,weatherlink.com 1.10,2013-09-01 21:59:00,
2013-09-01 17:14:00,67.8,58.0,29.89,NNE,15,4.0,12.0,72,0.00,,,0.00,weatherlink.com 1.10,2013-09-01 22:14:00,
2013-09-01 17:29:00,68.1,58.0,29.90,SW,217,3.0,9.0,69,0.00,,,0.00,weatherlink.com 1.10,2013-09-01 22:29:00,
2013-09-01 17:44:00,68.0,58.0,29.90,North,11,1.0,7.0,70,0.00,,,0.00,weatherlink.com 1.10,2013-09-01 22:44:00,
2013-09-01 17:59:00,68.1,59.0,29.90,ENE,75,2.0,7.0,72,0.00,,,0.00,weatherlink.com 1.10,2013-09-01 22:59:00,
2013-09-01 18:14:00,68.3,59.0,29.90,WNW,297,3.0,7.0,71,0.00,,,0.00,weatherlink.com 1.10,2013-09-01 23:14:00,
2013-09-01 18:29:00,69.8,59.0,29.90,West,260,5.0,10.0,68,0.00,,,0.00,weatherlink.com 1.10,2013-09-01 23:29:00,
2013-09-01 18:44:00,70.0,59.0,29.91,WSW,242,1.0,5.0,68,0.00,,,0.00,weatherlink.com 1.10,2013-09-01 23:44:00,
2013-09-01 18:59:00,69.3,58.0,29.91,WNW,293,4.0,11.0,68,0.00,,,0.00,weatherlink.com 1.10,2013-09-01 23:59:00,
2013-09-01 19:14:00,68.8,58.0,29.91,WNW,293,5.0,9.0,68,0.00,,,0.00,weatherlink.com 1.10,2013-09-02 00:14:00,
2013-09-01 19:29:00,68.1,58.0,29.91,SW,229,0.0,6.0,69,0.00,,,0.00,weatherlink.com 1.10,2013-09-02 00:29:00,
2013-09-01 19:44:00,66.4,57.0,29.92,NNE,15,1.0,7.0,72,0.00,,,0.00,weatherlink.com 1.10,2013-09-02 00:44:00,
2013-09-01 19:59:00,65.5,57.0,29.92,NNE,25,1.0,4.0,75,0.00,,,0.00,weatherlink.com 1.10,2013-09-02 00:59:00,
2013-09-01 20:14:00,64.8,58.0,29.93,NNE,19,0.0,4.0,78,0.00,,,0.00,weatherlink.com 1.10,2013-09-02 01:14:00,
2013-09-01 20:29:00,64.3,57.0,29.93,NNW,340,0.0,4.0,78,0.00,,,0.00,weatherlink.com 1.10,2013-09-02 01:29:00,
2013-09-01 20:44:00,64.1,56.0,29.94,NE,47,1.0,11.0,75,0.00,,,0.00,weatherlink.com 1.10,2013-09-02 01:44:00,
2013-09-01 20:59:00,63.1,55.0,29.94,NNE,25,5.0,7.0,76,0.00,,,0.00,weatherlink.com 1.10,2013-09-02 01:59:00,
2013-09-01 21:14:00,62.0,55.0,29.95,NNW,335,2.0,4.0,77,0.00,,,0.00,weatherlink.com 1.10,2013-09-02 02:14:00,
2013-09-01 21:29:00,61.7,55.0,29.95,NE,34,3.0,8.0,78,0.00,,,0.00,weatherlink.com 1.10,2013-09-02 02:29:00,
2013-09-01 21:44:00,61.2,54.0,29.96,NE,45,7.0,9.0,78,0.00,,,0.00,weatherlink.com 1.10,2013-09-02 02:44:00,
2013-09-01 21:59:00,60.3,54.0,29.96,NNE,23,6.0,8.0,79,0.00,,,0.00,weatherlink.com 1.10,2013-09-02 02:59:00,
2013-09-01 22:14:00,59.5,53.0,29.96,NNE,27,5.0,8.0,80,0.00,,,0.00,weatherlink.com 1.10,2013-09-02 03:14:00,
2013-09-01 22:30:00,58.7,53.0,29.97,NNE,22,7.0,8.0,81,0.00,,,0.00,weatherlink.com 1.10,2013-09-02 03:30:00,
2013-09-01 22:45:00,58.4,52.0,29.98,NNE,22,6.0,8.0,80,0.00,,,0.00,weatherlink.com 1.10,2013-09-02 03:45:00,
2013-09-01 23:00:00,58.2,52.0,29.98,NNE,25,6.0,10.0,80,0.00,,,0.00,weatherlink.com 1.10,2013-09-02 04:00:00,
2013-09-01 23:15:00,57.3,52.0,29.99,NNE,25,2.0,6.0,82,0.00,,,0.00,weatherlink.com 1.10,2013-09-02 04:15:00,
2013-09-01 23:30:00,56.9,52.0,29.99,NNE,25,5.0,7.0,82,0.00,,,0.00,weatherlink.com 1.10,2013-09-02 04:30:00,
2013-09-01 23:45:00,56.6,51.0,29.99,NNE,22,5.0,9.0,82,0.00,,,0.00,weatherlink.com 1.10,2013-09-02 04:45:00,